sensor_id;sensor_type;location;lat;lon;timestamp;temperature;humidity
17333;DHT22;8784;50.94667800;7.08448400;2022-11-15T00:00:05;11.70;99.90
17333;DHT22;8784;50.94667800;7.08448400;2022-11-15T00:02:34;11.70;99.90
17333;DHT22;8784;50.94667800;7.08448400;2022-11-15T00:05:01;11.80;99.90
17333;DHT22;8784;50.94667800;7.08448400;2022-11-15T00:07:28;11.80;99.90
17333;DHT22;8784;50.94667800;7.08448400;2022-11-15T00:09:55;11.90;99.90
17333;DHT22;8784;50.94667800;7.08448400;2022-11-15T00:12:23;11.90;99.90
17333;DHT22;8784;50.94667800;7.08448400;2022-11-15T00:14:50;11.90;99.90
17333;DHT22;8784;50.94667800;7.08448400;2022-11-15T00:17:17;11.90;99.90
17333;DHT22;8784;50.94667800;7.08448400;2022-11-15T00:19:45;11.90;99.90
17333;DHT22;8784;50.94667800;7.08448400;2022-11-15T00:22:12;11.90;99.90
17333;DHT22;8784;50.94667800;7.08448400;2022-11-15T00:24:39;11.90;99.90
17333;DHT22;8784;50.94667800;7.08448400;2022-11-15T00:27:06;11.90;99.90
17333;DHT22;8784;50.94667800;7.08448400;2022-11-15T00:29:33;12.00;99.90
17333;DHT22;8784;50.94667800;7.08448400;2022-11-15T00:32:02;12.10;99.90
17333;DHT22;8784;50.94667800;7.08448400;2022-11-15T00:34:29;12.10;99.90
17333;DHT22;8784;50.94667800;7.08448400;2022-11-15T00:36:58;12.10;99.90
17333;DHT22;8784;50.94667800;7.08448400;2022-11-15T00:39:25;12.20;99.90
17333;DHT22;8784;50.94667800;7.08448400;2022-11-15T00:41:52;12.20;99.90
17333;DHT22;8784;50.94667800;7.08448400;2022-11-15T00:44:19;12.20;99.90
17333;DHT22;8784;50.94667800;7.08448400;2022-11-15T00:46:46;12.20;99.90
17333;DHT22;8784;50.94667800;7.08448400;2022-11-15T00:49:13;12.30;99.90
17333;DHT22;8784;50.94667800;7.08448400;2022-11-15T00:51:40;12.30;99.90
17333;DHT22;8784;50.94667800;7.08448400;2022-11-15T00:54:09;12.30;99.90
17333;DHT22;8784;50.94667800;7.08448400;2022-11-15T00:56:35;12.30;99.90
17333;DHT22;8784;50.94667800;7.08448400;2022-11-15T00:59:02;12.30;99.90
17333;DHT22;8784;50.94667800;7.08448400;2022-11-15T01:01:29;12.30;99.90
17333;DHT22;8784;50.94667800;7.08448400;2022-11-15T01:03:57;12.40;99.90
17333;DHT22;8784;50.94667800;7.08448400;2022-11-15T01:06:24;12.40;99.90
17333;DHT22;8784;50.94667800;7.08448400;2022-11-15T01:08:51;12.40;99.90
17333;DHT22;8784;50.94667800;7.08448400;2022-11-15T01:11:20;12.40;99.90
17333;DHT22;8784;50.94667800;7.08448400;2022-11-15T01:13:47;12.50;99.90
17333;DHT22;8784;50.94667800;7.08448400;2022-11-15T01:16:16;12.50;99.90
17333;DHT22;8784;50.94667800;7.08448400;2022-11-15T01:18:45;12.50;99.90
17333;DHT22;8784;50.94667800;7.08448400;2022-11-15T01:21:13;12.50;99.90
17333;DHT22;8784;50.94667800;7.08448400;2022-11-15T01:23:41;12.60;99.90
17333;DHT22;8784;50.94667800;7.08448400;2022-11-15T01:26:10;12.60;99.90
17333;DHT22;8784;50.94667800;7.08448400;2022-11-15T01:28:40;12.60;99.90
17333;DHT22;8784;50.94667800;7.08448400;2022-11-15T01:31:11;12.60;99.90
17333;DHT22;8784;50.94667800;7.08448400;2022-11-15T01:33:38;12.70;99.90
17333;DHT22;8784;50.94667800;7.08448400;2022-11-15T01:36:07;12.70;99.90
17333;DHT22;8784;50.94667800;7.08448400;2022-11-15T01:38:34;12.70;99.90
17333;DHT22;8784;50.94667800;7.08448400;2022-11-15T01:41:01;12.70;99.90
17333;DHT22;8784;50.94667800;7.08448400;2022-11-15T01:43:30;12.70;99.90
17333;DHT22;8784;50.94667800;7.08448400;2022-11-15T01:46:04;12.80;99.90
17333;DHT22;8784;50.94667800;7.08448400;2022-11-15T01:48:35;12.80;99.90
17333;DHT22;8784;50.94667800;7.08448400;2022-11-15T01:51:06;12.80;99.90
17333;DHT22;8784;50.94667800;7.08448400;2022-11-15T01:53:38;12.80;99.90
17333;DHT22;8784;50.94667800;7.08448400;2022-11-15T01:56:10;12.90;99.90
17333;DHT22;8784;50.94667800;7.08448400;2022-11-15T01:58:38;12.80;99.90
17333;DHT22;8784;50.94667800;7.08448400;2022-11-15T02:01:08;12.90;99.90
17333;DHT22;8784;50.94667800;7.08448400;2022-11-15T02:03:39;12.90;99.90
17333;DHT22;8784;50.94667800;7.08448400;2022-11-15T02:06:08;12.90;99.90
17333;DHT22;8784;50.94667800;7.08448400;2022-11-15T02:08:35;12.90;99.90
17333;DHT22;8784;50.94667800;7.08448400;2022-11-15T02:11:04;13.00;99.90
17333;DHT22;8784;50.94667800;7.08448400;2022-11-15T02:13:34;12.90;99.90
17333;DHT22;8784;50.94667800;7.08448400;2022-11-15T02:16:09;13.00;99.90
17333;DHT22;8784;50.94667800;7.08448400;2022-11-15T02:18:45;13.00;99.90
17333;DHT22;8784;50.94667800;7.08448400;2022-11-15T02:21:19;13.00;99.90
17333;DHT22;8784;50.94667800;7.08448400;2022-11-15T02:27:17;13.00;99.90
17333;DHT22;8784;50.94667800;7.08448400;2022-11-15T02:32:47;13.00;99.90
17333;DHT22;8784;50.94667800;7.08448400;2022-11-15T02:35:20;12.90;99.90
17333;DHT22;8784;50.94667800;7.08448400;2022-11-15T02:37:54;13.00;99.90
17333;DHT22;8784;50.94667800;7.08448400;2022-11-15T02:40:30;12.90;99.90
17333;DHT22;8784;50.94667800;7.08448400;2022-11-15T02:43:03;12.90;99.90
17333;DHT22;8784;50.94667800;7.08448400;2022-11-15T02:45:53;12.90;99.90
17333;DHT22;8784;50.94667800;7.08448400;2022-11-15T02:48:24;12.90;99.90
17333;DHT22;8784;50.94667800;7.08448400;2022-11-15T02:50:52;12.90;99.90
17333;DHT22;8784;50.94667800;7.08448400;2022-11-15T02:53:24;13.00;99.90
17333;DHT22;8784;50.94667800;7.08448400;2022-11-15T02:55:52;13.00;99.90
17333;DHT22;8784;50.94667800;7.08448400;2022-11-15T02:58:35;13.10;99.90
17333;DHT22;8784;50.94667800;7.08448400;2022-11-15T03:01:12;13.10;99.90
17333;DHT22;8784;50.94667800;7.08448400;2022-11-15T03:03:58;13.00;99.90
17333;DHT22;8784;50.94667800;7.08448400;2022-11-15T03:06:34;13.10;99.90
17333;DHT22;8784;50.94667800;7.08448400;2022-11-15T03:09:09;13.10;99.90
17333;DHT22;8784;50.94667800;7.08448400;2022-11-15T03:11:44;13.10;99.90
17333;DHT22;8784;50.94667800;7.08448400;2022-11-15T03:14:21;13.10;99.90
17333;DHT22;8784;50.94667800;7.08448400;2022-11-15T03:16:56;13.10;99.90
17333;DHT22;8784;50.94667800;7.08448400;2022-11-15T03:19:31;13.10;99.90
17333;DHT22;8784;50.94667800;7.08448400;2022-11-15T03:22:01;13.10;99.90
17333;DHT22;8784;50.94667800;7.08448400;2022-11-15T03:24:31;13.00;99.90
17333;DHT22;8784;50.94667800;7.08448400;2022-11-15T03:27:00;13.10;99.90
17333;DHT22;8784;50.94667800;7.08448400;2022-11-15T03:29:32;13.10;99.90
17333;DHT22;8784;50.94667800;7.08448400;2022-11-15T03:32:03;13.10;99.90
17333;DHT22;8784;50.94667800;7.08448400;2022-11-15T03:34:36;13.00;99.90
17333;DHT22;8784;50.94667800;7.08448400;2022-11-15T03:37:07;13.10;99.90
17333;DHT22;8784;50.94667800;7.08448400;2022-11-15T03:39:34;13.00;99.90
17333;DHT22;8784;50.94667800;7.08448400;2022-11-15T03:42:09;13.00;99.90
17333;DHT22;8784;50.94667800;7.08448400;2022-11-15T03:44:46;13.10;99.90
17333;DHT22;8784;50.94667800;7.08448400;2022-11-15T03:47:17;13.10;99.90
17333;DHT22;8784;50.94667800;7.08448400;2022-11-15T03:49:52;13.10;99.90
17333;DHT22;8784;50.94667800;7.08448400;2022-11-15T03:52:21;13.10;99.90
17333;DHT22;8784;50.94667800;7.08448400;2022-11-15T03:54:54;13.10;99.90
17333;DHT22;8784;50.94667800;7.08448400;2022-11-15T03:57:21;13.10;99.90
17333;DHT22;8784;50.94667800;7.08448400;2022-11-15T03:59:48;13.10;99.90
17333;DHT22;8784;50.94667800;7.08448400;2022-11-15T04:02:16;13.20;99.90
17333;DHT22;8784;50.94667800;7.08448400;2022-11-15T04:04:43;13.20;99.90
17333;DHT22;8784;50.94667800;7.08448400;2022-11-15T04:07:11;13.20;99.90
17333;DHT22;8784;50.94667800;7.08448400;2022-11-15T04:09:38;13.20;99.90
17333;DHT22;8784;50.94667800;7.08448400;2022-11-15T04:12:28;13.20;99.90
17333;DHT22;8784;50.94667800;7.08448400;2022-11-15T04:15:02;13.20;99.90
17333;DHT22;8784;50.94667800;7.08448400;2022-11-15T04:17:37;13.30;99.90
17333;DHT22;8784;50.94667800;7.08448400;2022-11-15T04:20:06;13.30;99.90
17333;DHT22;8784;50.94667800;7.08448400;2022-11-15T04:22:54;13.30;99.90
17333;DHT22;8784;50.94667800;7.08448400;2022-11-15T04:25:39;13.30;99.90
17333;DHT22;8784;50.94667800;7.08448400;2022-11-15T04:28:06;13.30;99.90
17333;DHT22;8784;50.94667800;7.08448400;2022-11-15T04:30:33;13.30;99.90
17333;DHT22;8784;50.94667800;7.08448400;2022-11-15T04:33:00;13.30;99.90
17333;DHT22;8784;50.94667800;7.08448400;2022-11-15T04:35:28;13.40;99.90
17333;DHT22;8784;50.94667800;7.08448400;2022-11-15T04:37:57;13.40;99.90
17333;DHT22;8784;50.94667800;7.08448400;2022-11-15T04:40:24;13.30;99.90
17333;DHT22;8784;50.94667800;7.08448400;2022-11-15T04:42:51;13.30;99.90
17333;DHT22;8784;50.94667800;7.08448400;2022-11-15T04:45:18;13.30;99.90
17333;DHT22;8784;50.94667800;7.08448400;2022-11-15T04:47:46;13.30;99.90
17333;DHT22;8784;50.94667800;7.08448400;2022-11-15T04:50:15;13.30;99.90
17333;DHT22;8784;50.94667800;7.08448400;2022-11-15T04:52:43;13.30;99.90
17333;DHT22;8784;50.94667800;7.08448400;2022-11-15T04:55:12;13.30;99.90
17333;DHT22;8784;50.94667800;7.08448400;2022-11-15T04:57:39;13.30;99.90
17333;DHT22;8784;50.94667800;7.08448400;2022-11-15T05:00:08;13.30;99.90
17333;DHT22;8784;50.94667800;7.08448400;2022-11-15T05:02:36;13.30;99.90
17333;DHT22;8784;50.94667800;7.08448400;2022-11-15T05:05:20;13.30;99.90
17333;DHT22;8784;50.94667800;7.08448400;2022-11-15T05:07:47;13.30;99.90
17333;DHT22;8784;50.94667800;7.08448400;2022-11-15T05:10:16;13.10;99.90
17333;DHT22;8784;50.94667800;7.08448400;2022-11-15T05:12:43;13.20;99.90
17333;DHT22;8784;50.94667800;7.08448400;2022-11-15T05:15:10;13.10;99.90
17333;DHT22;8784;50.94667800;7.08448400;2022-11-15T05:17:37;13.10;99.90
17333;DHT22;8784;50.94667800;7.08448400;2022-11-15T05:20:04;13.10;99.90
17333;DHT22;8784;50.94667800;7.08448400;2022-11-15T05:22:31;13.10;99.90
17333;DHT22;8784;50.94667800;7.08448400;2022-11-15T05:24:58;13.10;99.90
17333;DHT22;8784;50.94667800;7.08448400;2022-11-15T05:27:27;13.10;99.90
17333;DHT22;8784;50.94667800;7.08448400;2022-11-15T05:29:55;13.10;99.90
17333;DHT22;8784;50.94667800;7.08448400;2022-11-15T05:32:22;13.20;99.90
17333;DHT22;8784;50.94667800;7.08448400;2022-11-15T05:34:49;13.10;99.90
17333;DHT22;8784;50.94667800;7.08448400;2022-11-15T05:37:16;13.10;99.90
17333;DHT22;8784;50.94667800;7.08448400;2022-11-15T05:39:43;13.10;99.90
17333;DHT22;8784;50.94667800;7.08448400;2022-11-15T05:42:11;13.10;99.90
17333;DHT22;8784;50.94667800;7.08448400;2022-11-15T05:44:43;13.10;99.90
17333;DHT22;8784;50.94667800;7.08448400;2022-11-15T05:47:15;13.10;99.90
17333;DHT22;8784;50.94667800;7.08448400;2022-11-15T05:49:44;13.00;99.90
17333;DHT22;8784;50.94667800;7.08448400;2022-11-15T05:52:16;13.00;99.90
17333;DHT22;8784;50.94667800;7.08448400;2022-11-15T05:54:43;12.90;99.90
17333;DHT22;8784;50.94667800;7.08448400;2022-11-15T05:57:10;12.90;99.90
17333;DHT22;8784;50.94667800;7.08448400;2022-11-15T05:59:39;12.90;99.90
17333;DHT22;8784;50.94667800;7.08448400;2022-11-15T06:02:08;12.80;99.90
17333;DHT22;8784;50.94667800;7.08448400;2022-11-15T06:04:35;12.80;99.90
17333;DHT22;8784;50.94667800;7.08448400;2022-11-15T06:07:03;12.80;99.90
17333;DHT22;8784;50.94667800;7.08448400;2022-11-15T06:09:29;12.70;99.90
17333;DHT22;8784;50.94667800;7.08448400;2022-11-15T06:11:56;12.70;99.90
17333;DHT22;8784;50.94667800;7.08448400;2022-11-15T06:14:24;12.70;99.90
17333;DHT22;8784;50.94667800;7.08448400;2022-11-15T06:16:52;12.60;99.90
17333;DHT22;8784;50.94667800;7.08448400;2022-11-15T06:19:19;12.60;99.90
17333;DHT22;8784;50.94667800;7.08448400;2022-11-15T06:21:46;12.60;99.90
17333;DHT22;8784;50.94667800;7.08448400;2022-11-15T06:24:13;12.60;99.90
17333;DHT22;8784;50.94667800;7.08448400;2022-11-15T06:26:39;12.50;99.90
17333;DHT22;8784;50.94667800;7.08448400;2022-11-15T06:29:06;12.60;99.90
17333;DHT22;8784;50.94667800;7.08448400;2022-11-15T06:31:34;12.50;99.90
17333;DHT22;8784;50.94667800;7.08448400;2022-11-15T06:34:02;12.40;99.90
17333;DHT22;8784;50.94667800;7.08448400;2022-11-15T06:36:29;12.40;99.90
17333;DHT22;8784;50.94667800;7.08448400;2022-11-15T06:38:57;12.30;99.90
17333;DHT22;8784;50.94667800;7.08448400;2022-11-15T06:41:24;12.40;99.90
17333;DHT22;8784;50.94667800;7.08448400;2022-11-15T06:43:51;12.30;99.90
17333;DHT22;8784;50.94667800;7.08448400;2022-11-15T06:46:17;12.30;99.90
17333;DHT22;8784;50.94667800;7.08448400;2022-11-15T06:48:44;12.20;99.90
17333;DHT22;8784;50.94667800;7.08448400;2022-11-15T06:51:13;12.20;99.90
17333;DHT22;8784;50.94667800;7.08448400;2022-11-15T06:53:41;12.10;99.90
17333;DHT22;8784;50.94667800;7.08448400;2022-11-15T06:56:08;12.10;99.90
17333;DHT22;8784;50.94667800;7.08448400;2022-11-15T06:58:35;12.10;99.90
17333;DHT22;8784;50.94667800;7.08448400;2022-11-15T07:01:04;12.10;99.90
17333;DHT22;8784;50.94667800;7.08448400;2022-11-15T07:03:31;12.00;99.90
17333;DHT22;8784;50.94667800;7.08448400;2022-11-15T07:06:00;12.00;99.90
17333;DHT22;8784;50.94667800;7.08448400;2022-11-15T07:08:30;12.00;99.90
17333;DHT22;8784;50.94667800;7.08448400;2022-11-15T07:11:02;12.00;99.90
17333;DHT22;8784;50.94667800;7.08448400;2022-11-15T07:13:31;12.00;99.90
17333;DHT22;8784;50.94667800;7.08448400;2022-11-15T07:16:01;12.00;99.90
17333;DHT22;8784;50.94667800;7.08448400;2022-11-15T07:18:28;12.00;99.90
17333;DHT22;8784;50.94667800;7.08448400;2022-11-15T07:20:55;12.00;99.90
17333;DHT22;8784;50.94667800;7.08448400;2022-11-15T07:23:22;12.00;99.90
17333;DHT22;8784;50.94667800;7.08448400;2022-11-15T07:25:50;12.00;99.90
17333;DHT22;8784;50.94667800;7.08448400;2022-11-15T07:28:17;12.00;99.90
17333;DHT22;8784;50.94667800;7.08448400;2022-11-15T07:30:44;12.00;99.90
17333;DHT22;8784;50.94667800;7.08448400;2022-11-15T07:33:11;12.00;99.90
17333;DHT22;8784;50.94667800;7.08448400;2022-11-15T07:35:38;12.00;99.90
17333;DHT22;8784;50.94667800;7.08448400;2022-11-15T07:38:05;12.00;99.90
17333;DHT22;8784;50.94667800;7.08448400;2022-11-15T07:40:32;12.00;99.90
17333;DHT22;8784;50.94667800;7.08448400;2022-11-15T07:43:02;12.00;99.90
17333;DHT22;8784;50.94667800;7.08448400;2022-11-15T07:45:29;12.10;99.90
17333;DHT22;8784;50.94667800;7.08448400;2022-11-15T07:47:59;12.10;99.90
17333;DHT22;8784;50.94667800;7.08448400;2022-11-15T07:50:29;12.20;99.90
17333;DHT22;8784;50.94667800;7.08448400;2022-11-15T07:52:58;12.20;99.90
17333;DHT22;8784;50.94667800;7.08448400;2022-11-15T07:55:28;12.20;99.90
17333;DHT22;8784;50.94667800;7.08448400;2022-11-15T07:58:01;12.30;99.90
17333;DHT22;8784;50.94667800;7.08448400;2022-11-15T08:00:29;12.40;99.90
17333;DHT22;8784;50.94667800;7.08448400;2022-11-15T08:03:02;12.40;99.90
17333;DHT22;8784;50.94667800;7.08448400;2022-11-15T08:05:29;12.50;99.90
17333;DHT22;8784;50.94667800;7.08448400;2022-11-15T08:07:56;12.60;99.90
17333;DHT22;8784;50.94667800;7.08448400;2022-11-15T08:10:24;12.70;99.90
17333;DHT22;8784;50.94667800;7.08448400;2022-11-15T08:12:57;12.70;99.90
17333;DHT22;8784;50.94667800;7.08448400;2022-11-15T08:15:26;12.80;99.90
17333;DHT22;8784;50.94667800;7.08448400;2022-11-15T08:17:54;12.80;99.90
17333;DHT22;8784;50.94667800;7.08448400;2022-11-15T08:20:21;12.80;99.90
17333;DHT22;8784;50.94667800;7.08448400;2022-11-15T08:22:50;12.90;99.90
17333;DHT22;8784;50.94667800;7.08448400;2022-11-15T08:25:17;12.90;99.90
17333;DHT22;8784;50.94667800;7.08448400;2022-11-15T08:27:44;12.90;99.90
17333;DHT22;8784;50.94667800;7.08448400;2022-11-15T08:30:12;13.00;99.90
17333;DHT22;8784;50.94667800;7.08448400;2022-11-15T08:32:40;13.00;99.90
17333;DHT22;8784;50.94667800;7.08448400;2022-11-15T08:35:08;13.10;99.90
17333;DHT22;8784;50.94667800;7.08448400;2022-11-15T08:37:35;13.10;99.90
17333;DHT22;8784;50.94667800;7.08448400;2022-11-15T08:40:02;13.20;99.90
17333;DHT22;8784;50.94667800;7.08448400;2022-11-15T08:42:29;13.10;99.90
17333;DHT22;8784;50.94667800;7.08448400;2022-11-15T08:44:56;13.20;99.90
17333;DHT22;8784;50.94667800;7.08448400;2022-11-15T08:47:24;13.20;99.90
17333;DHT22;8784;50.94667800;7.08448400;2022-11-15T08:49:59;13.30;99.90
17333;DHT22;8784;50.94667800;7.08448400;2022-11-15T08:52:26;13.30;99.90
17333;DHT22;8784;50.94667800;7.08448400;2022-11-15T08:54:53;13.40;99.90
17333;DHT22;8784;50.94667800;7.08448400;2022-11-15T08:57:24;13.40;99.90
17333;DHT22;8784;50.94667800;7.08448400;2022-11-15T08:59:51;13.60;99.90
17333;DHT22;8784;50.94667800;7.08448400;2022-11-15T09:02:27;13.70;99.90
17333;DHT22;8784;50.94667800;7.08448400;2022-11-15T09:04:56;13.70;99.90
17333;DHT22;8784;50.94667800;7.08448400;2022-11-15T09:07:23;13.90;99.90
17333;DHT22;8784;50.94667800;7.08448400;2022-11-15T09:09:50;13.90;99.90
17333;DHT22;8784;50.94667800;7.08448400;2022-11-15T09:12:17;14.00;99.90
17333;DHT22;8784;50.94667800;7.08448400;2022-11-15T09:14:44;14.00;99.90
17333;DHT22;8784;50.94667800;7.08448400;2022-11-15T09:17:11;14.10;99.90
17333;DHT22;8784;50.94667800;7.08448400;2022-11-15T09:19:38;14.20;99.90
17333;DHT22;8784;50.94667800;7.08448400;2022-11-15T09:22:07;14.30;99.90
17333;DHT22;8784;50.94667800;7.08448400;2022-11-15T09:24:37;14.30;99.90
17333;DHT22;8784;50.94667800;7.08448400;2022-11-15T09:27:06;14.40;99.90
17333;DHT22;8784;50.94667800;7.08448400;2022-11-15T09:29:33;14.50;99.90
17333;DHT22;8784;50.94667800;7.08448400;2022-11-15T09:31:59;14.50;99.90
17333;DHT22;8784;50.94667800;7.08448400;2022-11-15T09:34:26;14.60;99.90
17333;DHT22;8784;50.94667800;7.08448400;2022-11-15T09:36:56;14.70;99.90
17333;DHT22;8784;50.94667800;7.08448400;2022-11-15T09:39:24;14.80;99.90
17333;DHT22;8784;50.94667800;7.08448400;2022-11-15T09:42:01;14.90;99.90
17333;DHT22;8784;50.94667800;7.08448400;2022-11-15T09:44:55;15.00;99.90
17333;DHT22;8784;50.94667800;7.08448400;2022-11-15T09:48:03;15.10;99.90
17333;DHT22;8784;50.94667800;7.08448400;2022-11-15T09:50:38;15.10;99.90
17333;DHT22;8784;50.94667800;7.08448400;2022-11-15T09:53:11;15.10;99.90
17333;DHT22;8784;50.94667800;7.08448400;2022-11-15T09:55:46;15.20;99.90
17333;DHT22;8784;50.94667800;7.08448400;2022-11-15T09:58:21;15.20;99.90
17333;DHT22;8784;50.94667800;7.08448400;2022-11-15T10:00:51;15.20;99.90
17333;DHT22;8784;50.94667800;7.08448400;2022-11-15T10:03:26;15.30;99.90
17333;DHT22;8784;50.94667800;7.08448400;2022-11-15T10:05:56;15.30;99.90
17333;DHT22;8784;50.94667800;7.08448400;2022-11-15T10:08:44;15.40;99.90
17333;DHT22;8784;50.94667800;7.08448400;2022-11-15T10:11:18;15.40;99.90
17333;DHT22;8784;50.94667800;7.08448400;2022-11-15T10:13:47;15.50;99.90
17333;DHT22;8784;50.94667800;7.08448400;2022-11-15T10:16:36;15.50;99.90
17333;DHT22;8784;50.94667800;7.08448400;2022-11-15T10:19:13;15.60;99.90
17333;DHT22;8784;50.94667800;7.08448400;2022-11-15T10:21:53;15.70;99.90
17333;DHT22;8784;50.94667800;7.08448400;2022-11-15T10:24:26;15.80;99.90
17333;DHT22;8784;50.94667800;7.08448400;2022-11-15T10:26:56;15.90;99.90
17333;DHT22;8784;50.94667800;7.08448400;2022-11-15T10:29:24;15.90;99.90
17333;DHT22;8784;50.94667800;7.08448400;2022-11-15T10:31:52;15.90;99.90
17333;DHT22;8784;50.94667800;7.08448400;2022-11-15T10:34:22;15.90;99.90
17333;DHT22;8784;50.94667800;7.08448400;2022-11-15T10:36:55;16.00;99.90
17333;DHT22;8784;50.94667800;7.08448400;2022-11-15T10:39:22;16.00;99.90
17333;DHT22;8784;50.94667800;7.08448400;2022-11-15T10:41:52;16.00;99.90
17333;DHT22;8784;50.94667800;7.08448400;2022-11-15T10:44:23;16.10;99.90
17333;DHT22;8784;50.94667800;7.08448400;2022-11-15T10:47:25;16.00;99.90
17333;DHT22;8784;50.94667800;7.08448400;2022-11-15T10:49:58;16.10;99.40
17333;DHT22;8784;50.94667800;7.08448400;2022-11-15T10:52:25;16.10;99.90
17333;DHT22;8784;50.94667800;7.08448400;2022-11-15T10:54:56;16.10;99.60
17333;DHT22;8784;50.94667800;7.08448400;2022-11-15T10:57:26;16.10;99.50
17333;DHT22;8784;50.94667800;7.08448400;2022-11-15T10:59:57;16.20;99.20
17333;DHT22;8784;50.94667800;7.08448400;2022-11-15T11:02:31;16.20;98.60
17333;DHT22;8784;50.94667800;7.08448400;2022-11-15T11:04:59;16.30;97.90
17333;DHT22;8784;50.94667800;7.08448400;2022-11-15T11:07:28;16.10;96.90
17333;DHT22;8784;50.94667800;7.08448400;2022-11-15T11:10:00;16.00;96.70
17333;DHT22;8784;50.94667800;7.08448400;2022-11-15T11:12:29;16.00;95.70
17333;DHT22;8784;50.94667800;7.08448400;2022-11-15T11:15:00;15.90;95.80
17333;DHT22;8784;50.94667800;7.08448400;2022-11-15T11:17:36;15.90;95.30
17333;DHT22;8784;50.94667800;7.08448400;2022-11-15T11:20:15;15.90;95.20
17333;DHT22;8784;50.94667800;7.08448400;2022-11-15T11:25:46;15.80;94.40
17333;DHT22;8784;50.94667800;7.08448400;2022-11-15T11:28:35;15.80;95.00
17333;DHT22;8784;50.94667800;7.08448400;2022-11-15T11:31:17;15.90;94.00
17333;DHT22;8784;50.94667800;7.08448400;2022-11-15T11:33:52;15.90;94.30
17333;DHT22;8784;50.94667800;7.08448400;2022-11-15T11:36:29;16.00;94.30
17333;DHT22;8784;50.94667800;7.08448400;2022-11-15T11:39:17;16.00;94.40
17333;DHT22;8784;50.94667800;7.08448400;2022-11-15T11:41:53;16.10;93.70
17333;DHT22;8784;50.94667800;7.08448400;2022-11-15T11:44:32;16.10;93.80
17333;DHT22;8784;50.94667800;7.08448400;2022-11-15T11:47:05;16.10;93.80
17333;DHT22;8784;50.94667800;7.08448400;2022-11-15T11:49:39;16.20;93.20
17333;DHT22;8784;50.94667800;7.08448400;2022-11-15T11:52:13;16.20;92.80
17333;DHT22;8784;50.94667800;7.08448400;2022-11-15T11:54:47;16.20;92.60
17333;DHT22;8784;50.94667800;7.08448400;2022-11-15T11:57:27;16.20;93.00
17333;DHT22;8784;50.94667800;7.08448400;2022-11-15T12:00:00;16.30;92.70
17333;DHT22;8784;50.94667800;7.08448400;2022-11-15T12:02:33;16.30;92.60
17333;DHT22;8784;50.94667800;7.08448400;2022-11-15T12:05:08;16.30;92.60
17333;DHT22;8784;50.94667800;7.08448400;2022-11-15T12:07:38;16.30;92.30
17333;DHT22;8784;50.94667800;7.08448400;2022-11-15T12:10:17;16.30;92.00
17333;DHT22;8784;50.94667800;7.08448400;2022-11-15T12:12:51;16.20;91.70
17333;DHT22;8784;50.94667800;7.08448400;2022-11-15T12:15:22;16.10;91.90
17333;DHT22;8784;50.94667800;7.08448400;2022-11-15T12:17:52;16.10;92.00
17333;DHT22;8784;50.94667800;7.08448400;2022-11-15T12:20:23;16.10;91.90
17333;DHT22;8784;50.94667800;7.08448400;2022-11-15T12:22:56;16.10;92.20
17333;DHT22;8784;50.94667800;7.08448400;2022-11-15T12:25:29;16.20;92.00
17333;DHT22;8784;50.94667800;7.08448400;2022-11-15T12:28:01;16.20;91.80
17333;DHT22;8784;50.94667800;7.08448400;2022-11-15T12:30:41;16.20;91.80
17333;DHT22;8784;50.94667800;7.08448400;2022-11-15T12:33:30;16.30;91.80
17333;DHT22;8784;50.94667800;7.08448400;2022-11-15T12:36:00;16.30;91.50
17333;DHT22;8784;50.94667800;7.08448400;2022-11-15T12:38:51;16.40;91.80
17333;DHT22;8784;50.94667800;7.08448400;2022-11-15T12:41:20;16.60;91.70
17333;DHT22;8784;50.94667800;7.08448400;2022-11-15T12:43:51;16.60;91.80
17333;DHT22;8784;50.94667800;7.08448400;2022-11-15T12:46:26;16.60;91.40
17333;DHT22;8784;50.94667800;7.08448400;2022-11-15T12:49:44;16.50;91.80
17333;DHT22;8784;50.94667800;7.08448400;2022-11-15T12:52:15;16.40;91.80
17333;DHT22;8784;50.94667800;7.08448400;2022-11-15T12:54:59;16.30;91.90
17333;DHT22;8784;50.94667800;7.08448400;2022-11-15T12:57:32;16.20;91.90
17333;DHT22;8784;50.94667800;7.08448400;2022-11-15T13:00:02;16.10;92.40
17333;DHT22;8784;50.94667800;7.08448400;2022-11-15T13:02:33;16.10;92.80
17333;DHT22;8784;50.94667800;7.08448400;2022-11-15T13:08:11;16.10;92.90
17333;DHT22;8784;50.94667800;7.08448400;2022-11-15T13:10:57;16.10;93.10
17333;DHT22;8784;50.94667800;7.08448400;2022-11-15T13:13:42;16.00;93.30
17333;DHT22;8784;50.94667800;7.08448400;2022-11-15T13:16:11;16.00;93.30
17333;DHT22;8784;50.94667800;7.08448400;2022-11-15T14:00:35;15.50;94.60
17333;DHT22;8784;50.94667800;7.08448400;2022-11-15T14:03:12;15.50;94.80
17333;DHT22;8784;50.94667800;7.08448400;2022-11-15T14:05:42;15.50;95.00
17333;DHT22;8784;50.94667800;7.08448400;2022-11-15T14:08:22;15.40;95.10
17333;DHT22;8784;50.94667800;7.08448400;2022-11-15T14:11:06;15.40;95.10
17333;DHT22;8784;50.94667800;7.08448400;2022-11-15T14:13:33;15.40;95.10
17333;DHT22;8784;50.94667800;7.08448400;2022-11-15T14:16:17;15.40;95.30
17333;DHT22;8784;50.94667800;7.08448400;2022-11-15T14:18:48;15.40;95.30
17333;DHT22;8784;50.94667800;7.08448400;2022-11-15T14:21:16;15.40;95.40
17333;DHT22;8784;50.94667800;7.08448400;2022-11-15T14:23:43;15.40;95.50
17333;DHT22;8784;50.94667800;7.08448400;2022-11-15T14:26:28;15.40;95.50
17333;DHT22;8784;50.94667800;7.08448400;2022-11-15T14:28:55;15.30;95.60
17333;DHT22;8784;50.94667800;7.08448400;2022-11-15T14:31:24;15.30;95.70
17333;DHT22;8784;50.94667800;7.08448400;2022-11-15T14:33:51;15.30;95.80
17333;DHT22;8784;50.94667800;7.08448400;2022-11-15T14:36:19;15.30;95.90
17333;DHT22;8784;50.94667800;7.08448400;2022-11-15T14:38:47;15.30;96.10
17333;DHT22;8784;50.94667800;7.08448400;2022-11-15T14:41:18;15.20;96.10
17333;DHT22;8784;50.94667800;7.08448400;2022-11-15T14:43:46;15.20;96.60
17333;DHT22;8784;50.94667800;7.08448400;2022-11-15T14:46:13;15.10;96.20
17333;DHT22;8784;50.94667800;7.08448400;2022-11-15T14:48:42;15.10;96.40